Luray, VA (22835)

8:12 PM EDT on July 29, 2016 (GMT -0400)
hilldale subdivision | | Change Station

Elev 837 ft 38.67 °N, 78.43 °W | Updated 23 seconds ago

Clear
Clear
82.4 °F
Feels Like 87 °F
N
0.0
Wind Variable Wind from East
Gusts 0.0 mph

Today
High -- | Low -- °F
--% Chance of Precip.
Yesterday
High -- | Low -- °F
Precip. -- in
Pressure 29.92 in
Visibility 10.0 miles
Clouds Clear
Heat Index 87 °F
Dew Point 72 °F
Humidity 71%
Rainfall 0.06 in
Snow Depth Not available.
6:13 AM 8:26 PM
Waning Crescent, 18% visible
METAR KCJR 292355Z AUTO 00000KT 10SM CLR 27/23 A2992 RMK AO2 T02720234 10314 20272
Pressure 29.92 in
Visibility 10.0 miles
Clouds Clear
Heat Index 87 °F
Dew Point 72 °F
Humidity 71%
Rainfall 0.06 in
Snow Depth Not available.
6:13 AM 8:26 PM
Waning Crescent, 18% visible
METAR KCJR 292355Z AUTO 00000KT 10SM CLR 27/23 A2992 RMK AO2 T02720234 10314 20272

10-Day Weather Forecast

Almanac

Astronomy

Jul. 29, 2016 Rise Set
Actual Time
Civil Twilight
Nautical Twilight
Astronomical Twilight
Moon
Length of Visible Light
Length of Day
Tomorrow will be .
, % of the Moon is Illuminated

Today's Extremes

State Highs State Lows

Community

WunderPhotos

Upload Photos

1,928,449 photos uploaded!

WunderBlog® & News

Nearby

Air Quality

  Air Quality AQ Index Pollutant
Not available.

Snow Depth

Station Depth Elevation

Earthquake Activity

City Distance Mag. Time & Date
Minimum magnitude displayed is 2.5.

Coastal Water Temperatures

Place Temperature

Stations

Nearby Weather Stations

Station Location Temp. Windchill Dew Point Humidity Wind Precip. Elev Updated Type
                   

Watches & Warnings

There are currently no watches in effect.